createdAt,value
2019-03-13T00:01:42.349Z,98312.06
2019-03-13T00:03:52.000Z,98305.34
2019-03-13T00:06:00.987Z,98298.63
2019-03-13T00:08:08.767Z,98301.53
2019-03-13T00:10:16.936Z,98303.66
2019-03-13T00:12:24.626Z,98301.14
2019-03-13T00:14:32.583Z,98295.77
2019-03-13T00:16:40.313Z,98294.98
2019-03-13T00:18:47.938Z,98293.77
2019-03-13T00:20:55.738Z,98279.16
2019-03-13T00:23:03.591Z,98280.38
2019-03-13T00:25:11.553Z,98283.31
2019-03-13T00:27:19.277Z,98280.02
2019-03-13T00:29:27.122Z,98280.92
2019-03-13T00:31:36.160Z,98276.81
2019-03-13T00:33:43.874Z,98270.58
2019-03-13T00:35:51.627Z,98275.25
2019-03-13T00:37:59.325Z,98270.58
2019-03-13T00:40:11.847Z,98270.13
2019-03-13T00:42:19.509Z,98261.70
2019-03-13T00:44:27.128Z,98255.39
2019-03-13T00:46:34.754Z,98255.74
2019-03-13T00:48:42.497Z,98252.80
2019-03-13T00:50:50.542Z,98256.97
2019-03-13T00:52:58.293Z,98251.51
2019-03-13T00:55:07.386Z,98245.66
2019-03-13T00:57:15.015Z,98241.02
2019-03-13T00:59:22.692Z,98238.07
2019-03-13T01:01:38.823Z,98232.23
2019-03-13T01:03:48.293Z,98232.59
2019-03-13T01:06:00.458Z,98228.83
2019-03-13T01:08:08.110Z,98226.31
2019-03-13T01:10:16.366Z,98226.27
2019-03-13T01:12:24.126Z,98224.56
2019-03-13T01:14:31.769Z,98211.58
2019-03-13T01:16:39.378Z,98209.04
2019-03-13T01:18:48.225Z,98202.33
2019-03-13T01:20:56.020Z,98196.05
2019-03-13T01:23:03.730Z,98196.91
2019-03-13T01:25:12.598Z,98200.20
2019-03-13T01:27:20.221Z,98192.23
2019-03-13T01:29:29.130Z,98184.27
2019-03-13T01:31:36.739Z,98180.92
2019-03-13T01:33:44.651Z,98180.45
2019-03-13T01:36:00.008Z,98183.80
2019-03-13T01:38:07.816Z,98176.66
2019-03-13T01:40:15.791Z,98171.25
2019-03-13T01:42:23.474Z,98166.63
2019-03-13T01:44:31.140Z,98160.79
2019-03-13T01:46:38.773Z,98149.87
2019-03-13T01:48:46.480Z,98144.04
2019-03-13T01:50:54.292Z,98146.53
2019-03-13T01:53:03.288Z,98147.39
2019-03-13T01:55:11.843Z,98144.48
2019-03-13T01:57:19.450Z,98145.76
2019-03-13T01:59:27.085Z,98144.91
2019-03-13T02:01:34.700Z,98141.95
2019-03-13T02:03:42.406Z,98136.48
2019-03-13T02:05:50.056Z,98136.48
2019-03-13T02:07:58.312Z,98134.86
2019-03-13T02:10:11.931Z,98126.91
2019-03-13T02:12:19.635Z,98128.60
2019-03-13T02:14:27.237Z,98124.00
2019-03-13T02:16:35.324Z,98122.77
2019-03-13T02:18:44.250Z,98112.74
2019-03-13T02:20:51.926Z,98116.09
2019-03-13T02:22:59.734Z,98106.54
2019-03-13T02:25:10.691Z,98096.95
2019-03-13T02:27:18.386Z,98096.95
2019-03-13T02:29:26.107Z,98095.72
2019-03-13T02:31:33.969Z,98093.66
2019-03-13T02:33:41.583Z,98087.37
2019-03-13T02:35:50.855Z,98086.13
2019-03-13T02:37:58.560Z,98074.38
2019-03-13T02:40:14.514Z,98073.15
2019-03-13T02:42:22.145Z,98069.45
2019-03-13T02:44:29.797Z,98057.27
2019-03-13T02:46:37.491Z,98063.05
2019-03-13T02:48:45.268Z,98053.44
2019-03-13T02:50:53.014Z,98053.80
2019-03-13T02:53:00.697Z,98050.83
2019-03-13T02:55:10.403Z,98044.11
2019-03-13T02:57:18.044Z,98048.31
2019-03-13T02:59:25.648Z,98043.22
2019-03-13T03:01:37.659Z,98043.59
2019-03-13T03:03:47.032Z,98048.59
2019-03-13T03:05:57.171Z,98041.89
2019-03-13T03:08:05.706Z,98042.55
2019-03-13T03:10:14.282Z,98044.63
2019-03-13T03:12:22.003Z,98039.23
2019-03-13T03:14:29.690Z,98030.03
2019-03-13T03:16:37.519Z,98022.66
2019-03-13T03:18:45.265Z,98029.14
2019-03-13T03:20:52.981Z,98023.59
2019-03-13T03:23:00.723Z,98019.83
2019-03-13T03:25:12.439Z,98012.72
2019-03-13T03:27:20.069Z,98010.49
2019-03-13T03:29:27.814Z,98001.18
2019-03-13T03:31:35.475Z,98003.50
2019-03-13T03:33:44.693Z,97997.72
2019-03-13T03:35:52.301Z,97990.91
2019-03-13T03:37:59.979Z,97993.84
2019-03-13T03:40:15.042Z,97988.13
2019-03-13T03:42:23.983Z,97993.14
2019-03-13T03:44:31.550Z,97989.53
2019-03-13T03:46:39.127Z,97976.05
2019-03-13T03:48:46.812Z,97983.48
2019-03-13T03:50:54.453Z,97975.08
2019-03-13T03:53:02.108Z,97978.46
2019-03-13T03:55:12.399Z,97964.47
2019-03-13T03:57:20.015Z,97974.61
2019-03-13T03:59:27.721Z,97957.30
2019-03-13T04:01:35.416Z,97959.53
2019-03-13T04:03:43.005Z,97951.67
2019-03-13T04:05:50.652Z,97962.83
2019-03-13T04:07:58.268Z,97953.88
2019-03-13T04:10:14.985Z,97953.83
2019-03-13T04:12:22.643Z,97951.02
2019-03-13T04:14:30.250Z,97954.00
2019-03-13T04:16:37.846Z,97959.23
2019-03-13T04:18:46.782Z,97949.13
2019-03-13T04:20:54.392Z,97942.75
2019-03-13T04:23:03.273Z,97951.06
2019-03-13T04:25:21.129Z,97955.61
2019-03-13T04:27:28.843Z,97943.11
2019-03-13T04:29:36.490Z,97932.83
2019-03-13T04:31:44.074Z,97932.28
2019-03-13T04:33:51.681Z,97928.05
2019-03-13T04:35:59.332Z,97919.36
2019-03-13T04:38:08.162Z,97922.57
2019-03-13T04:40:17.232Z,97911.64
2019-03-13T04:42:24.913Z,97912.58
2019-03-13T04:44:32.572Z,97917.09
2019-03-13T04:46:40.189Z,97915.34
2019-03-13T04:48:47.875Z,97921.53
2019-03-13T04:50:56.692Z,97913.60
2019-03-13T04:53:04.425Z,97908.85
2019-03-13T04:55:17.483Z,97907.11
2019-03-13T04:57:25.182Z,97905.70
2019-03-13T04:59:32.890Z,97904.41
2019-03-13T05:01:40.478Z,97894.88
2019-03-13T05:03:48.061Z,97892.40
2019-03-13T05:05:55.940Z,97900.22
2019-03-13T05:08:03.517Z,97898.92
2019-03-13T05:10:12.026Z,97896.38
2019-03-13T05:12:19.650Z,97901.90
2019-03-13T05:14:27.233Z,97900.08
2019-03-13T05:16:34.812Z,97898.74
2019-03-13T05:18:43.718Z,97887.38
2019-03-13T05:20:52.655Z,97892.42
2019-03-13T05:23:00.342Z,97880.56
2019-03-13T05:25:08.275Z,97883.50
2019-03-13T05:27:16.047Z,97884.14
2019-03-13T05:29:23.631Z,97879.95
2019-03-13T05:31:31.343Z,97884.03
2019-03-13T05:33:39.017Z,97882.77
2019-03-13T05:35:46.628Z,97878.05
2019-03-13T05:37:54.225Z,97876.86
2019-03-13T05:40:01.860Z,97881.74
2019-03-13T05:42:09.437Z,97879.95
2019-03-13T05:44:17.311Z,97877.47
2019-03-13T05:46:24.986Z,97873.56
2019-03-13T05:48:32.548Z,97873.03
2019-03-13T05:50:40.146Z,97878.70
2019-03-13T05:52:47.712Z,97867.75
2019-03-13T05:54:56.578Z,97866.50
2019-03-13T05:57:04.341Z,97862.09
2019-03-13T05:59:11.917Z,97859.06
2019-03-13T06:01:20.782Z,97861.53
2019-03-13T06:03:28.489Z,97858.01
2019-03-13T06:05:37.354Z,97858.13
2019-03-13T06:07:44.943Z,97857.46
2019-03-13T06:09:53.836Z,97862.45
2019-03-13T06:12:01.840Z,97866.85
2019-03-13T06:14:09.410Z,97859.25
2019-03-13T06:16:19.887Z,97860.00
2019-03-13T06:18:27.560Z,97863.05
2019-03-13T06:20:35.136Z,97858.62
2019-03-13T06:22:42.776Z,97857.14
2019-03-13T06:24:50.447Z,97850.79
2019-03-13T06:26:58.225Z,97860.41
2019-03-13T06:29:05.824Z,97856.02
2019-03-13T06:31:13.399Z,97861.34
2019-03-13T06:33:21.062Z,97860.30
2019-03-13T06:35:28.735Z,97861.37
2019-03-13T06:37:36.308Z,97864.11
2019-03-13T06:39:43.883Z,97855.94
2019-03-13T06:41:51.565Z,97847.31
2019-03-13T06:43:59.136Z,97855.32
2019-03-13T06:46:06.920Z,97850.39
2019-03-13T06:48:14.516Z,97846.92
2019-03-13T06:50:24.604Z,97844.70
2019-03-13T06:52:32.426Z,97850.03
2019-03-13T06:54:40.123Z,97855.92
2019-03-13T06:56:48.766Z,97861.53
2019-03-13T06:59:00.764Z,97866.94
2019-03-13T07:01:13.681Z,97860.82
2019-03-13T07:03:24.204Z,97857.56
2019-03-13T07:05:34.476Z,97860.54
2019-03-13T07:07:49.490Z,97856.82
2019-03-13T07:09:58.772Z,97856.63
2019-03-13T07:12:10.882Z,97857.61
2019-03-13T07:14:26.475Z,97862.66
2019-03-13T07:16:33.816Z,97858.55
2019-03-13T07:18:43.910Z,97856.30
2019-03-13T07:21:08.476Z,97852.20
2019-03-13T07:23:23.520Z,97856.83
2019-03-13T07:25:41.661Z,97847.46
2019-03-13T07:27:54.122Z,97852.23
2019-03-13T07:30:13.342Z,97856.02
2019-03-13T07:32:38.813Z,97851.18
2019-03-13T07:35:03.306Z,97843.77
2019-03-13T07:37:15.319Z,97839.03
2019-03-13T07:39:28.454Z,97837.73
2019-03-13T07:41:50.085Z,97828.68
2019-03-13T07:44:17.703Z,97826.36
2019-03-13T07:46:25.048Z,97822.91
2019-03-13T07:48:51.918Z,97821.51
2019-03-13T07:51:01.640Z,97816.34
2019-03-13T07:53:11.080Z,97827.91
2019-03-13T07:55:27.388Z,97830.48
2019-03-13T07:57:36.610Z,97825.16
2019-03-13T07:59:48.524Z,97821.13
2019-03-13T08:01:57.909Z,97825.66
2019-03-13T08:04:07.268Z,97823.26
2019-03-13T08:06:25.262Z,97829.81
2019-03-13T08:08:34.671Z,97837.09
2019-03-13T08:10:53.099Z,97834.09
2019-03-13T08:13:09.238Z,97834.14
2019-03-13T08:15:33.507Z,97828.61
2019-03-13T08:17:54.549Z,97828.91
2019-03-13T08:20:13.891Z,97826.20
2019-03-13T08:22:34.781Z,97825.67
2019-03-13T08:24:46.476Z,97843.97
2019-03-13T08:27:10.896Z,97839.36
2019-03-13T08:29:36.894Z,97854.16
2019-03-13T08:31:46.090Z,97852.01
2019-03-13T08:33:54.721Z,97853.31
2019-03-13T08:36:20.080Z,97842.75
2019-03-13T08:38:32.237Z,97840.91
2019-03-13T08:40:39.653Z,97843.87
2019-03-13T08:42:48.902Z,97844.63
2019-03-13T08:44:58.218Z,97845.60
2019-03-13T08:47:10.513Z,97836.46
2019-03-13T08:49:36.313Z,97831.22
2019-03-13T08:51:45.583Z,97821.05
2019-03-13T08:53:57.586Z,97804.03
2019-03-13T08:56:19.229Z,97809.61
2019-03-13T08:58:28.447Z,97821.55
2019-03-13T09:00:49.296Z,97825.58
2019-03-13T09:03:01.237Z,97824.15
2019-03-13T09:05:20.681Z,97822.30
2019-03-13T09:07:32.834Z,97816.97
2019-03-13T09:09:45.056Z,97821.97
2019-03-13T09:11:56.806Z,97824.91
2019-03-13T09:14:23.581Z,97805.23
2019-03-13T09:16:32.939Z,97813.87
2019-03-13T09:18:51.415Z,97818.38
2019-03-13T09:21:15.814Z,97826.86
2019-03-13T09:23:24.281Z,97832.83
2019-03-13T09:25:31.712Z,97820.84
2019-03-13T09:27:54.091Z,97834.59
2019-03-13T09:30:04.081Z,97831.42
2019-03-13T09:32:28.900Z,97835.17
2019-03-13T09:34:38.198Z,97835.80
2019-03-13T09:36:48.440Z,97834.38
2019-03-13T09:38:57.757Z,97841.05
2019-03-13T09:41:22.530Z,97832.60
2019-03-13T09:43:48.322Z,97844.58
2019-03-13T09:45:55.659Z,97848.55
2019-03-13T09:48:15.175Z,97858.98
2019-03-13T09:50:33.199Z,97859.42
2019-03-13T09:52:40.641Z,97848.55
2019-03-13T09:54:49.870Z,97841.44
2019-03-13T09:56:58.553Z,97846.27
2019-03-13T09:59:11.894Z,97841.48
2019-03-13T10:01:33.379Z,97838.65
2019-03-13T10:03:45.445Z,97848.36
2019-03-13T10:06:11.221Z,97839.09
2019-03-13T10:08:20.437Z,97840.86
2019-03-13T10:10:29.675Z,97844.37
2019-03-13T10:12:54.976Z,97848.69
2019-03-13T10:15:07.489Z,97846.29
2019-03-13T10:17:22.778Z,97848.83
2019-03-13T10:19:34.998Z,97856.73
2019-03-13T10:21:47.255Z,97849.13
2019-03-13T10:23:59.473Z,97852.94
2019-03-13T10:26:24.482Z,97851.30
2019-03-13T10:28:37.652Z,97859.28
2019-03-13T10:30:55.649Z,97860.62
2019-03-13T10:33:05.056Z,97861.45
2019-03-13T10:35:14.407Z,97870.34
2019-03-13T10:37:41.202Z,97873.75
2019-03-13T10:39:56.067Z,97878.53
2019-03-13T10:42:05.448Z,97878.53
2019-03-13T10:44:12.895Z,97881.13
2019-03-13T10:46:38.423Z,97877.62
2019-03-13T10:49:02.827Z,97867.54
2019-03-13T10:51:12.241Z,97877.19
2019-03-13T10:53:24.281Z,97873.81
2019-03-13T10:55:48.743Z,97865.97
2019-03-13T10:58:08.316Z,97872.32
2019-03-13T11:00:34.958Z,97871.05
2019-03-13T11:02:48.288Z,97866.48
2019-03-13T11:04:57.617Z,97864.02
2019-03-13T11:07:23.079Z,97866.55
2019-03-13T11:09:32.397Z,97871.22
2019-03-13T11:11:56.745Z,97866.02
2019-03-13T11:14:15.788Z,97866.41
2019-03-13T11:16:43.095Z,97867.11
2019-03-13T11:19:08.699Z,97867.47
2019-03-13T11:21:24.117Z,97868.16
2019-03-13T11:23:37.404Z,97869.90
2019-03-13T11:25:46.550Z,97869.43
2019-03-13T11:28:11.951Z,97872.30
2019-03-13T11:30:21.403Z,97876.11
2019-03-13T11:32:33.513Z,97877.23
2019-03-13T11:34:50.270Z,97878.14
2019-03-13T11:37:02.051Z,97874.37
2019-03-13T11:39:16.751Z,97877.38
2019-03-13T11:41:26.147Z,97878.64
2019-03-13T11:43:50.803Z,97877.81
2019-03-13T11:46:02.868Z,97879.91
2019-03-13T11:48:28.445Z,97881.69
2019-03-13T11:50:49.720Z,97875.70
2019-03-13T11:52:59.138Z,97883.66
2019-03-13T11:55:16.736Z,97888.30
2019-03-13T11:57:31.905Z,97877.30
2019-03-13T11:59:43.828Z,97882.17
2019-03-13T12:02:04.892Z,97880.80
2019-03-13T12:04:18.307Z,97875.76
2019-03-13T12:06:31.912Z,97870.67
2019-03-13T12:08:47.167Z,97876.22
2019-03-13T12:11:11.912Z,97874.19
2019-03-13T12:13:23.993Z,97875.39
2019-03-13T12:15:35.899Z,97878.72
2019-03-13T12:17:52.375Z,97877.38
2019-03-13T12:20:04.557Z,97874.72
2019-03-13T12:22:13.879Z,97883.86
2019-03-13T12:24:26.826Z,97877.52
2019-03-13T12:26:45.243Z,97883.47
2019-03-13T12:29:10.786Z,97886.00
2019-03-13T12:31:36.512Z,97888.68
2019-03-13T12:33:51.921Z,97879.40
2019-03-13T12:36:03.893Z,97875.43
2019-03-13T12:38:22.258Z,97882.72
2019-03-13T12:40:44.777Z,97871.03
2019-03-13T12:42:53.995Z,97865.52
2019-03-13T12:45:03.355Z,97863.38
2019-03-13T12:47:10.811Z,97857.48
2019-03-13T12:49:20.133Z,97860.31
2019-03-13T12:51:41.795Z,97864.38
2019-03-13T12:53:53.532Z,97861.00
2019-03-13T12:56:00.844Z,97861.41
2019-03-13T12:58:13.071Z,97865.64
2019-03-13T13:00:31.593Z,97867.89
2019-03-13T13:02:55.035Z,97867.89
2019-03-13T13:05:16.402Z,97866.55
2019-03-13T13:07:25.661Z,97866.02
2019-03-13T13:09:35.818Z,97863.94
2019-03-13T13:11:43.064Z,97857.38
2019-03-13T13:13:56.696Z,97860.57
2019-03-13T13:16:22.123Z,97861.57
2019-03-13T13:18:47.553Z,97862.81
2019-03-13T13:20:55.225Z,97856.89
2019-03-13T13:23:02.839Z,97856.22
2019-03-13T13:25:12.266Z,97853.02
2019-03-13T13:27:19.848Z,97854.42
2019-03-13T13:29:27.493Z,97856.48
2019-03-13T13:31:35.073Z,97849.35
2019-03-13T13:33:42.859Z,97850.56
2019-03-13T13:35:50.638Z,97848.78
2019-03-13T13:37:58.535Z,97838.70
2019-03-13T13:40:13.172Z,97836.22
2019-03-13T13:42:20.740Z,97842.59
2019-03-13T13:44:29.385Z,97837.07
2019-03-13T13:46:37.120Z,97833.78
2019-03-13T13:48:44.867Z,97837.83
2019-03-13T13:50:52.442Z,97837.38
2019-03-13T13:53:00.047Z,97838.00
2019-03-13T13:55:08.162Z,97840.10
2019-03-13T13:57:15.902Z,97840.47
2019-03-13T13:59:23.602Z,97846.22
2019-03-13T14:01:31.347Z,97841.72
2019-03-13T14:03:38.922Z,97835.08
2019-03-13T14:05:46.725Z,97836.19
2019-03-13T14:07:54.654Z,97841.64
2019-03-13T14:10:02.332Z,97841.72
2019-03-13T14:12:10.378Z,97834.33
2019-03-13T14:14:18.069Z,97837.25
2019-03-13T14:16:25.637Z,97839.62
2019-03-13T14:18:33.442Z,97837.48
2019-03-13T14:20:41.155Z,97839.71
2019-03-13T14:22:48.898Z,97832.66
2019-03-13T14:24:56.579Z,97828.72
2019-03-13T14:27:13.908Z,97832.38
2019-03-13T14:29:13.597Z,97830.10
2019-03-13T14:31:21.210Z,97829.36
2019-03-13T14:33:29.723Z,97825.91
2019-03-13T14:35:37.372Z,97822.20
2019-03-13T14:37:45.165Z,97821.05
2019-03-13T14:39:52.840Z,97823.83
2019-03-13T14:42:00.537Z,97817.34
2019-03-13T14:44:08.296Z,97818.44
2019-03-13T14:46:19.651Z,97818.52
2019-03-13T14:48:27.223Z,97815.72
2019-03-13T14:50:36.513Z,97816.77
2019-03-13T14:52:44.301Z,97814.08
2019-03-13T14:54:51.865Z,97820.02
2019-03-13T14:57:00.538Z,97815.98
2019-03-13T14:59:08.176Z,97819.50
2019-03-13T15:01:15.893Z,97830.75
2019-03-13T15:03:23.515Z,97825.66
2019-03-13T15:05:31.367Z,97827.31
2019-03-13T15:07:39.205Z,97828.67
2019-03-13T15:09:46.781Z,97828.81
2019-03-13T15:11:54.357Z,97832.81
2019-03-13T15:14:01.929Z,97833.34
2019-03-13T15:16:10.841Z,97833.42
2019-03-13T15:18:18.419Z,97829.91
2019-03-13T15:20:31.954Z,97832.45
2019-03-13T15:22:39.626Z,97819.63
2019-03-13T15:24:47.197Z,97823.30
2019-03-13T15:26:54.779Z,97829.64
2019-03-13T15:29:02.413Z,97828.54
2019-03-13T15:31:10.098Z,97836.35
2019-03-13T15:33:18.511Z,97835.41
2019-03-13T15:35:26.431Z,97833.70
2019-03-13T15:37:34.146Z,97838.48
2019-03-13T15:39:41.737Z,97838.73
2019-03-13T15:41:49.430Z,97831.62
2019-03-13T15:43:57.025Z,97835.11
2019-03-13T15:46:04.604Z,97832.09
2019-03-13T15:48:12.373Z,97832.17
2019-03-13T15:50:20.368Z,97833.69
2019-03-13T15:52:28.042Z,97841.18
2019-03-13T15:54:35.659Z,97838.05
2019-03-13T15:56:43.236Z,97843.83
2019-03-13T15:58:50.915Z,97841.73
2019-03-13T16:00:58.511Z,97845.85
2019-03-13T16:03:06.319Z,97855.82
2019-03-13T16:05:14.229Z,97848.78
2019-03-13T16:07:21.846Z,97847.52
2019-03-13T16:09:29.593Z,97848.47
2019-03-13T16:11:37.165Z,97841.72
2019-03-13T16:13:44.763Z,97841.20
2019-03-13T16:15:52.424Z,97835.13
2019-03-13T16:18:00.323Z,97833.73
2019-03-13T16:20:12.290Z,97837.39
2019-03-13T16:22:22.420Z,97837.47
2019-03-13T16:24:30.720Z,97837.16
2019-03-13T16:26:38.527Z,97835.52
2019-03-13T16:28:46.097Z,97844.50
2019-03-13T16:30:56.334Z,97841.12
2019-03-13T16:33:04.184Z,97842.55
2019-03-13T16:35:12.194Z,97838.72
2019-03-13T16:37:19.938Z,97837.28
2019-03-13T16:39:27.711Z,97843.98
2019-03-13T16:41:35.456Z,97840.08
2019-03-13T16:43:43.096Z,97842.67
2019-03-13T16:45:50.721Z,97838.28
2019-03-13T16:47:58.478Z,97838.63
2019-03-13T16:50:13.233Z,97843.24
2019-03-13T16:52:20.978Z,97836.35
2019-03-13T16:54:28.641Z,97837.70
2019-03-13T16:56:37.200Z,97833.78
2019-03-13T16:58:45.003Z,97835.38
2019-03-13T17:00:52.682Z,97838.51
2019-03-13T17:03:00.591Z,97835.97
2019-03-13T17:05:12.554Z,97843.33
2019-03-13T17:07:20.208Z,97842.45
2019-03-13T17:09:27.901Z,97844.45
2019-03-13T17:11:35.648Z,97846.61
2019-03-13T17:13:43.415Z,97838.46
2019-03-13T17:15:50.977Z,97842.16
2019-03-13T17:17:58.687Z,97841.63
2019-03-13T17:20:21.864Z,97844.16
2019-03-13T17:22:30.161Z,97838.33
2019-03-13T17:24:37.871Z,97845.06
2019-03-13T17:26:45.706Z,97842.00
2019-03-13T17:28:54.271Z,97847.34
2019-03-13T17:31:02.173Z,97841.00
2019-03-13T17:33:09.907Z,97838.09
2019-03-13T17:35:17.729Z,97835.16
2019-03-13T17:37:25.333Z,97844.17
2019-03-13T17:39:33.965Z,97837.96
2019-03-13T17:41:41.783Z,97842.39
2019-03-13T17:43:49.399Z,97835.02
2019-03-13T17:45:57.094Z,97837.75
2019-03-13T17:48:07.088Z,97840.95
2019-03-13T17:50:17.918Z,97833.06
2019-03-13T17:52:25.521Z,97831.22
2019-03-13T17:54:33.100Z,97828.84
2019-03-13T17:56:40.742Z,97830.45
2019-03-13T17:58:48.520Z,97836.79
2019-03-13T18:00:57.173Z,97832.69
2019-03-13T18:03:05.556Z,97836.45
2019-03-13T18:05:14.846Z,97844.83
2019-03-13T18:07:22.573Z,97843.50
2019-03-13T18:09:30.286Z,97844.25
2019-03-13T18:11:37.975Z,97848.05
2019-03-13T18:13:45.688Z,97845.42
2019-03-13T18:15:53.295Z,97841.83
2019-03-13T18:18:01.951Z,97849.66
2019-03-13T18:20:18.419Z,97856.64
2019-03-13T18:22:26.036Z,97855.21
2019-03-13T18:24:34.165Z,97852.16
2019-03-13T18:26:43.026Z,97847.64
2019-03-13T18:28:50.698Z,97843.13
2019-03-13T18:31:01.687Z,97849.20
2019-03-13T18:33:07.927Z,97846.00
2019-03-13T18:35:17.352Z,97851.20
2019-03-13T18:37:25.007Z,97853.00
2019-03-13T18:39:32.594Z,97857.58
2019-03-13T18:41:40.321Z,97849.02
2019-03-13T18:43:48.008Z,97858.13
2019-03-13T18:45:55.595Z,97846.72
2019-03-13T18:48:03.438Z,97856.55
2019-03-13T18:50:15.501Z,97853.84
2019-03-13T18:52:24.194Z,97848.78
2019-03-13T18:54:31.813Z,97844.20
2019-03-13T18:56:39.399Z,97845.78
2019-03-13T18:58:46.998Z,97851.30
2019-03-13T19:00:54.644Z,97841.12
2019-03-13T19:03:14.794Z,97843.25
2019-03-13T19:05:22.513Z,97844.56
2019-03-13T19:07:30.148Z,97848.12
2019-03-13T19:09:37.817Z,97847.27
2019-03-13T19:11:45.574Z,97850.49
2019-03-13T19:13:53.314Z,97849.83
2019-03-13T19:16:01.062Z,97846.30
2019-03-13T19:18:09.156Z,97847.97
2019-03-13T19:20:23.504Z,97846.66
2019-03-13T19:22:31.225Z,97843.08
2019-03-13T19:24:39.746Z,97846.60
2019-03-13T19:26:48.742Z,97844.91
2019-03-13T19:28:56.398Z,97846.45
2019-03-13T19:31:04.083Z,97840.70
2019-03-13T19:33:11.702Z,97838.31
2019-03-13T19:35:19.696Z,97835.55
2019-03-13T19:37:27.983Z,97835.12
2019-03-13T19:39:35.809Z,97844.03
2019-03-13T19:41:43.393Z,97842.59
2019-03-13T19:43:51.168Z,97836.22
2019-03-13T19:45:58.943Z,97835.26
2019-03-13T19:48:06.675Z,97836.52
2019-03-13T19:50:17.228Z,97838.64
2019-03-13T19:52:24.928Z,97840.87
2019-03-13T19:54:33.829Z,97844.38
2019-03-13T19:56:41.409Z,97839.91
2019-03-13T19:58:49.111Z,97841.25
2019-03-13T20:00:56.866Z,97839.19
2019-03-13T20:03:11.224Z,97834.19
2019-03-13T20:05:18.974Z,97836.20
2019-03-13T20:07:26.559Z,97839.97
2019-03-13T20:09:34.253Z,97841.96
2019-03-13T20:11:42.048Z,97841.38
2019-03-13T20:13:49.714Z,97842.48
2019-03-13T20:15:57.473Z,97835.53
2019-03-13T20:18:05.827Z,97833.95
2019-03-13T20:20:16.980Z,97839.14
2019-03-13T20:22:24.463Z,97833.44
2019-03-13T20:24:32.191Z,97840.86
2019-03-13T20:26:40.076Z,97835.73
2019-03-13T20:28:47.809Z,97825.94
2019-03-13T20:30:55.540Z,97823.36
2019-03-13T20:33:03.533Z,97829.20
2019-03-13T20:35:11.810Z,97822.50
2019-03-13T20:37:19.792Z,97842.05
2019-03-13T20:39:27.401Z,97842.58
2019-03-13T20:41:37.336Z,97844.28
2019-03-13T20:43:46.113Z,97840.41
2019-03-13T20:45:53.725Z,97833.98
2019-03-13T20:48:04.076Z,97844.45
2019-03-13T20:50:11.852Z,97847.93
2019-03-13T20:52:20.759Z,97837.95
2019-03-13T20:54:29.745Z,97837.63
2019-03-13T20:56:38.632Z,97842.00
2019-03-13T20:58:51.344Z,97836.59
2019-03-13T21:00:59.231Z,97829.50
2019-03-13T21:03:10.465Z,97834.85
2019-03-13T21:05:18.617Z,97829.42
2019-03-13T21:07:27.655Z,97829.02
2019-03-13T21:09:35.320Z,97820.23
2019-03-13T21:11:43.070Z,97815.61
2019-03-13T21:13:50.821Z,97816.88
2019-03-13T21:15:58.507Z,97813.97
2019-03-13T21:18:06.131Z,97813.19
2019-03-13T21:20:16.778Z,97809.40
2019-03-13T21:22:24.369Z,97808.54
2019-03-13T21:24:32.062Z,97805.36
2019-03-13T21:26:39.734Z,97805.66
2019-03-13T21:28:47.419Z,97799.34
2019-03-13T21:30:55.028Z,97803.97
2019-03-13T21:33:02.587Z,97800.13
2019-03-13T21:35:10.346Z,97804.98
2019-03-13T21:37:17.948Z,97805.43
2019-03-13T21:39:26.599Z,97812.42
2019-03-13T21:41:35.495Z,97805.72
2019-03-13T21:43:43.563Z,97810.42
2019-03-13T21:45:51.244Z,97809.06
2019-03-13T21:47:58.987Z,97806.34
2019-03-13T21:50:16.928Z,97796.38
2019-03-13T21:52:24.575Z,97797.23
2019-03-13T21:54:32.360Z,97792.53
2019-03-13T21:56:39.934Z,97797.91
2019-03-13T21:58:47.591Z,97802.05
2019-03-13T22:00:55.203Z,97796.78
2019-03-13T22:03:02.791Z,97798.80
2019-03-13T22:05:10.440Z,97801.21
2019-03-13T22:07:18.193Z,97799.78
2019-03-13T22:09:25.881Z,97796.05
2019-03-13T22:11:33.728Z,97794.97
2019-03-13T22:13:41.397Z,97794.77
2019-03-13T22:15:49.070Z,97797.66
2019-03-13T22:17:56.812Z,97785.94
2019-03-13T22:20:06.697Z,97797.06
2019-03-13T22:22:14.281Z,97783.35
2019-03-13T22:24:21.944Z,97784.13
2019-03-13T22:26:29.632Z,97779.24
2019-03-13T22:28:38.051Z,97780.94
2019-03-13T22:30:45.735Z,97771.59
2019-03-13T22:32:53.842Z,97773.58
2019-03-13T22:35:01.534Z,97768.77
2019-03-13T22:37:09.171Z,97769.67
2019-03-13T22:39:16.966Z,97771.00
2019-03-13T22:41:24.544Z,97769.19
2019-03-13T22:43:32.222Z,97769.33
2019-03-13T22:45:40.007Z,97768.78
2019-03-13T22:47:47.925Z,97762.04
2019-03-13T22:49:55.674Z,97767.04
2019-03-13T22:52:03.374Z,97758.59
2019-03-13T22:54:12.017Z,97759.45
2019-03-13T22:56:22.449Z,97762.34
2019-03-13T22:58:30.049Z,97758.37
2019-03-13T23:00:50.196Z,97756.62
2019-03-13T23:02:59.482Z,97753.19
2019-03-13T23:05:07.253Z,97751.44
2019-03-13T23:07:15.244Z,97741.52
2019-03-13T23:09:23.094Z,97739.80
2019-03-13T23:11:30.790Z,97741.55
2019-03-13T23:13:38.532Z,97735.42
2019-03-13T23:15:46.440Z,97732.05
2019-03-13T23:17:54.144Z,97729.52
2019-03-13T23:20:01.858Z,97719.47
2019-03-13T23:22:09.561Z,97721.56
2019-03-13T23:24:17.155Z,97712.67
2019-03-13T23:26:24.799Z,97714.84
2019-03-13T23:28:32.566Z,97713.16
2019-03-13T23:30:41.258Z,97714.77
2019-03-13T23:32:48.824Z,97719.36
2019-03-13T23:34:56.498Z,97717.30
2019-03-13T23:37:04.135Z,97722.55
2019-03-13T23:39:12.276Z,97723.69
2019-03-13T23:41:19.859Z,97715.33
2019-03-13T23:43:27.472Z,97714.80
2019-03-13T23:45:35.128Z,97711.38
2019-03-13T23:47:42.877Z,97707.64
2019-03-13T23:49:50.550Z,97712.38
2019-03-13T23:51:58.129Z,97713.40
2019-03-13T23:54:05.738Z,97716.41
2019-03-13T23:56:13.312Z,97716.03
2019-03-13T23:58:20.881Z,97712.67
